Latest Weather Observations for Mangrove Mountain

IDN60801

Issued at 7:02 am EST Sunday 23 July 2017 (issued every 30 minutes, with the page automatically refreshed every 10 minutes)

About weather observations | Map of weather stations | Latest weather observations for NSW | Other Formats
Station Details ID: 061375 Name: MANGROVE MOUNTAIN AWS Lat: -33.29 Lon: 151.21 Height: 305.0 m
Data from the previous 72 hours. | See also: Recent months at Mangrove Mountain
Date/Time
EST
Temp
°C
App
Temp
°C
Dew
Point
°C
Rel
Hum
%
Delta-T
°C
Wind Press
QNH
hPa
Press
MSL
hPa
Rain since
9am
mm
Dir  Spd
km/h
Gust
km/h
Spd
kts
Gust
kts
23/07:00am 7.8 3.2 -0.9 54 3.4 NW 13 19 7 10 - - 0.0
23/06:30am 7.8 3.2 -0.9 54 3.4 NW 13 20 7 11 - - 0.0
23/06:00am 7.6 3.0 -1.1 54 3.4 NW 13 19 7 10 - - 0.0
23/05:30am 7.6 3.4 -1.1 54 3.4 NW 11 15 6 8 - - 0.0
23/05:00am 7.8 3.6 -1.2 53 3.5 NW 11 19 6 10 - - 0.0
23/04:30am 7.8 3.6 -1.2 53 3.5 NW 11 20 6 11 - - 0.0
23/04:00am 7.7 3.8 -1.5 52 3.5 NW 9 15 5 8 - - 0.0
23/03:30am 8.1 3.5 -1.4 51 3.7 NW 13 20 7 11 - - 0.0
23/03:00am 7.5 3.6 -1.4 53 3.4 WNW 9 17 5 9 - - 0.0
23/02:30am 7.1 3.2 -1.3 55 3.2 WNW 9 15 5 8 - - 0.0
23/02:00am 7.1 3.8 -1.6 54 3.3 WNW 6 11 3 6 - - 0.0
23/01:30am 8.1 4.6 -1.7 50 3.8 NW 7 13 4 7 - - 0.0
23/01:00am 8.5 4.6 -1.6 49 3.9 WNW 9 13 5 7 - - 0.0
23/12:30am 8.3 4.8 -1.0 52 3.7 NW 7 19 4 10 - - 0.0
23/12:00am 7.1 3.8 -1.6 54 3.3 NW 6 9 3 5 - - 0.0
 
Date/Time
EST
Temp
°C
App
Temp
°C
Dew
Point
°C
Rel
Hum
%
Delta-T
°C
Wind Press
QNH
hPa
Press
MSL
hPa
Rain since
9am
mm
Dir  Spd
km/h
Gust
km/h
Spd
kts
Gust
kts
22/11:30pm 8.3 5.0 -1.5 50 3.8 NW 6 11 3 6 - - 0.0
22/11:00pm 8.4 5.0 -0.9 52 3.7 NW 7 13 4 7 - - 0.0
22/10:30pm 7.8 4.6 -0.7 55 3.3 WNW 6 9 3 5 - - 0.0
22/10:00pm 8.5 5.2 0.0 55 3.4 WNW 7 11 4 6 - - 0.0
22/09:30pm 7.9 5.2 0.4 59 3.0 NW 4 7 2 4 - - 0.0
22/09:00pm 8.4 5.7 0.4 57 3.3 NW 4 6 2 3 - - 0.0
22/08:30pm 8.4 5.8 0.9 59 3.1 NNW 4 7 2 4 - - 0.0
22/08:00pm 8.1 5.6 1.3 62 2.8 NNW 4 7 2 4 - - 0.0
22/07:30pm 7.1 5.3 1.0 65 2.5 CALM 0 0 0 0 - - 0.0
22/07:00pm 6.4 4.4 -0.1 63 2.6 CALM 0 0 0 0 - - 0.0
22/06:30pm 7.6 5.6 -0.4 57 3.2 CALM 0 0 0 0 - - 0.0
22/06:00pm 6.7 4.7 -0.1 62 2.7 CALM 0 0 0 0 - - 0.0
22/05:30pm 8.3 6.3 -0.2 55 3.4 CALM 0 0 0 0 - - 0.0
22/05:00pm 11.8 9.8 -0.4 43 5.0 CALM 0 2 0 1 - - 0.0
22/04:30pm 14.8 12.0 -0.1 36 6.4 NW 4 7 2 4 - - 0.0
22/04:00pm 16.5 13.5 1.0 35 6.9 NW 6 9 3 5 - - 0.0
22/03:30pm 16.7 13.2 1.2 35 6.9 NW 9 15 5 8 - - 0.0
22/03:00pm 16.9 13.7 1.0 34 7.1 WNW 7 13 4 7 - - 0.0
22/02:30pm 16.9 13.4 1.4 35 7.0 WNW 9 19 5 10 - - 0.0
22/02:00pm 16.2 12.3 1.1 36 6.7 NW 11 17 6 9 - - 0.0
22/01:30pm 15.9 12.4 1.2 37 6.5 NW 9 17 5 9 - - 0.0
22/01:00pm 15.4 10.9 0.0 35 6.6 NW 13 19 7 10 - - 0.0
22/12:30pm 14.9 10.9 0.4 37 6.3 WNW 11 20 6 11 - - 0.0
22/12:00pm 14.4 10.3 2.3 44 5.4 WNW 13 19 7 10 - - 0.0
22/11:30am 13.5 10.0 3.6 51 4.5 NW 11 17 6 9 - - 0.0
22/11:00am 13.0 10.0 3.9 54 4.2 NW 9 17 5 9 - - 0.0
22/10:30am 11.7 8.7 4.2 60 3.4 NW 9 19 5 10 - - 0.0
22/10:00am 10.3 7.9 4.2 66 2.8 NNW 6 9 3 5 - - 0.0
22/09:30am 8.9 6.1 3.3 68 2.4 NW 7 11 4 6 - - 0.0
22/09:00am 7.2 4.4 3.4 77 1.6 NNW 7 11 4 6 - - 0.0
22/08:30am 6.1 3.5 3.4 83 1.2 NW 6 9 3 5 - - 0.0
22/08:00am 3.5 0.8 2.8 95 0.3 NW 6 9 3 5 - - 0.0
22/07:30am 1.9 -0.6 1.3 96 0.2 NW 4 7 2 4 - - 0.0
22/07:00am 1.4 -1.6 0.7 95 0.3 NW 6 7 3 4 - - 0.0
22/06:30am 1.4 -1.6 0.7 95 0.3 NW 6 7 3 4 - - 0.0
22/06:00am 2.3 -0.8 1.6 95 0.3 NW 7 7 4 4 - - 0.0
22/05:30am 2.0 -0.9 1.4 96 0.2 NW 6 7 3 4 - - 0.0
22/05:00am 1.9 -1.0 1.3 96 0.2 NW 6 7 3 4 - - 0.0
22/04:30am 2.1 -0.8 1.7 97 0.2 NW 6 7 3 4 - - 0.0
22/04:00am 1.4 -1.6 1.0 97 0.2 NW 6 6 3 3 - - 0.0
22/03:30am 1.3 -1.8 0.3 93 0.4 NW 6 6 3 3 - - 0.0
22/03:00am 2.3 -0.8 1.6 95 0.3 NW 7 9 4 5 - - 0.0
22/02:30am 2.4 -0.6 2.0 97 0.2 NW 7 9 4 5 - - 0.0
22/02:00am 1.7 -0.9 1.0 95 0.3 NW 4 6 2 3 - - 0.0
22/01:30am 2.0 -0.6 1.0 93 0.4 NW 4 6 2 3 - - 0.0
22/01:00am 2.6 0.5 1.4 92 0.5 WNW 2 4 1 2 - - 0.0
22/12:30am 3.5 1.6 2.6 94 0.4 WNW 2 4 1 2 - - 0.0
22/12:00am 2.9 0.8 1.9 93 0.4 WNW 2 4 1 2 - - 0.0
 
Date/Time
EST
Temp
°C
App
Temp
°C
Dew
Point
°C
Rel
Hum
%
Delta-T
°C
Wind Press
QNH
hPa
Press
MSL
hPa
Rain since
9am
mm
Dir  Spd
km/h
Gust
km/h
Spd
kts
Gust
kts
21/11:30pm 2.7 0.2 1.8 94 0.4 NW 4 6 2 3 - - 0.0
21/11:00pm 3.0 0.6 2.0 93 0.4 NW 4 6 2 3 - - 0.0
21/10:30pm 3.3 0.8 1.7 89 0.6 NW 4 6 2 3 - - 0.0
21/10:00pm 4.2 2.6 2.4 88 0.7 CALM 0 0 0 0 - - 0.0
21/09:30pm 4.6 3.1 3.1 90 0.6 CALM 0 4 0 2 - - 0.0
21/09:00pm 4.8 3.2 2.7 86 0.9 CALM 0 0 0 0 - - 0.0
21/08:30pm 4.5 3.0 3.0 90 0.6 CALM 0 4 0 2 - - 0.0
21/08:00pm 4.0 2.3 1.9 86 0.8 CALM 0 0 0 0 - - 0.0
21/07:30pm 4.6 2.9 2.0 83 1.1 CALM 0 0 0 0 - - 0.0
21/07:00pm 5.8 3.5 3.0 82 1.2 SE 4 6 2 3 - - 0.0
21/06:30pm 5.0 2.5 1.8 80 1.3 SE 4 6 2 3 - - 0.0
21/06:00pm 6.1 4.0 2.0 75 1.7 W 2 4 1 2 - - 0.0
21/05:30pm 6.7 4.3 2.0 72 2.0 W 4 6 2 3 - - 0.0
21/05:00pm 9.4 7.1 2.5 62 3.0 W 4 6 2 3 - - 0.0
21/04:30pm 11.9 9.2 2.6 53 4.1 W 6 11 3 6 - - 0.0
21/04:00pm 13.0 10.0 2.3 48 4.7 WSW 7 13 4 7 - - 0.0
21/03:30pm 13.7 11.0 2.6 47 5.0 SW 6 15 3 8 - - 0.0
21/03:00pm 13.7 10.4 2.6 47 5.0 SSW 9 19 5 10 - - 0.0
21/02:30pm 14.5 11.5 3.9 49 4.9 SSW 9 17 5 9 - - 0.0
21/02:00pm 13.9 10.8 3.4 49 4.8 SW 9 20 5 11 - - 0.0
21/01:30pm 13.6 9.7 3.4 50 4.7 SW 13 20 7 11 - - 0.0
21/01:00pm 13.5 10.1 4.1 53 4.4 SW 11 19 6 10 - - 0.0
21/12:30pm 13.1 9.2 3.5 52 4.4 SW 13 24 7 13 - - 0.0
21/12:00pm 13.3 10.0 4.5 55 4.1 SW 11 20 6 11 - - 0.0
21/11:30am 12.1 8.2 3.6 56 3.9 SW 13 26 7 14 - - 0.0
21/11:00am 11.4 7.6 3.7 59 3.5 WSW 13 22 7 12 - - 0.0
21/10:30am 11.0 7.5 3.5 60 3.4 WSW 11 22 6 12 - - 0.0
21/10:00am 10.3 6.7 3.1 61 3.2 WSW 11 24 6 13 - - 0.0
21/09:30am 9.6 6.2 2.0 59 3.2 SW 9 19 5 10 - - 0.0
21/09:00am 8.8 5.0 1.9 62 2.9 WSW 11 22 6 12 - - 0.0
21/08:30am 7.9 4.1 1.7 65 2.6 W 11 20 6 11 - - 0.0
21/08:00am 6.2 2.6 0.9 69 2.1 W 9 13 5 7 - - 0.0
21/07:30am 4.9 1.3 0.3 72 1.8 W 9 15 5 8 - - 0.0
21/07:00am 4.8 1.5 0.0 71 1.9 W 7 15 4 8 - - 0.0
21/06:30am 4.8 0.8 0.2 72 1.8 W 11 17 6 9 - - 0.0
21/06:00am 4.2 0.9 0.2 75 1.5 W 7 13 4 7 - - 0.0
21/05:30am 4.0 0.4 0.7 79 1.3 W 9 17 5 9 - - 0.0
21/05:00am 2.9 -0.4 0.1 82 1.1 W 7 9 4 5 - - 0.0
21/04:30am 2.2 -1.0 -0.5 82 1.0 WNW 6 9 3 5 - - 0.0
21/04:00am 3.1 -0.2 0.2 81 1.1 WNW 7 13 4 7 - - 0.0
21/03:30am 2.1 -1.1 -0.5 83 1.0 WNW 6 9 3 5 - - 0.0
21/03:00am 2.3 -0.8 -0.1 84 0.9 WNW 6 9 3 5 - - 0.0
21/02:30am 1.8 -1.5 -1.1 81 1.1 WNW 6 7 3 4 - - 0.0
21/02:00am 3.3 0.5 -0.7 75 1.5 WNW 4 7 2 4 - - 0.0
21/01:30am 4.0 0.9 0.2 76 1.5 W 6 9 3 5 - - 0.0
21/01:00am 3.5 0.3 -0.5 75 1.5 W 6 7 3 4 - - 0.0
21/12:30am 4.0 0.8 -0.4 73 1.7 WNW 6 9 3 5 - - 0.0
21/12:00am 3.8 0.9 -1.0 71 1.8 WNW 4 7 2 4 - - 0.0
 
Date/Time
EST
Temp
°C
App
Temp
°C
Dew
Point
°C
Rel
Hum
%
Delta-T
°C
Wind Press
QNH
hPa
Press
MSL
hPa
Rain since
9am
mm
Dir  Spd
km/h
Gust
km/h
Spd
kts
Gust
kts
20/11:30pm 4.6 1.4 -0.6 69 2.0 W 6 9 3 5 - - 0.0
20/11:00pm 4.7 1.5 -0.5 69 2.0 WNW 6 7 3 4 - - 0.0
20/10:30pm 5.0 1.8 -0.2 69 2.0 WNW 6 7 3 4 - - 0.0
20/10:00pm 5.0 1.8 -0.4 68 2.1 W 6 9 3 5 - - 0.0
20/09:30pm 6.9 3.1 -0.5 59 2.9 W 9 15 5 8 - - 0.0
20/09:00pm 7.6 3.8 -0.4 57 3.2 W 9 17 5 9 - - 0.0
20/08:30pm 7.6 3.8 -0.4 57 3.2 W 9 13 5 7 - - 0.0
20/08:00pm 8.2 4.5 -0.3 55 3.4 W 9 15 5 8 - - 0.0
20/07:30pm 8.6 4.5 -0.4 53 3.6 W 11 19 6 10 - - 0.0
20/07:00pm 8.9 5.1 -0.4 52 3.7 W 9 17 5 9 - - 0.0
20/06:30pm 9.3 4.4 -0.8 49 4.0 W 15 24 8 13 - - 0.0
20/06:00pm 10.0 5.0 -1.1 46 4.4 W 15 26 8 14 - - 0.0
20/05:30pm 10.5 5.4 -1.9 42 4.9 WSW 15 28 8 15 - - 0.0
20/05:00pm 11.1 6.7 -2.3 39 5.3 WSW 11 20 6 11 - - 0.0
20/04:30pm 12.4 6.8 -3.0 34 6.0 WSW 17 28 9 15 - - 0.0
20/04:00pm 13.7 8.6 -2.3 33 6.5 W 15 24 8 13 - - 0.0
20/03:30pm 14.9 10.7 -1.2 33 6.7 W 11 22 6 12 - - 0.0
20/03:00pm 15.0 9.6 -1.1 33 6.8 WSW 17 37 9 20 - - 0.0
20/02:30pm 15.0 9.1 -2.4 30 7.1 W 19 28 10 15 - - 0.0
20/02:00pm 15.4 9.5 -2.5 29 7.3 WSW 19 30 10 16 - - 0.0
20/01:30pm 15.2 9.1 -3.6 27 7.5 WSW 19 30 10 16 - - 0.0
20/01:00pm 15.4 9.2 -3.0 28 7.4 W 20 39 11 21 - - 0.0
20/12:30pm 15.3 9.5 -1.7 31 7.1 W 19 37 10 20 - - 0.0
20/12:00pm 14.9 9.1 -0.4 35 6.5 W 20 39 11 21 - - 0.0
20/11:30am 14.2 9.1 0.8 40 5.8 WNW 17 30 9 16 - - 0.0
20/11:00am 13.2 8.7 2.1 47 4.9 WNW 15 22 8 12 - - 0.0
20/10:30am 12.3 7.5 2.5 51 4.3 WNW 17 30 9 16 - - 0.0
20/10:00am 11.5 6.7 2.5 54 4.0 WNW 17 26 9 14 - - 0.0
20/09:30am 10.4 6.1 3.0 60 3.3 WNW 15 24 8 13 - - 0.0
20/09:00am 9.7 5.8 3.2 64 2.9 WNW 13 20 7 11 - - 0.0
20/08:30am 8.9 5.3 3.1 67 2.5 WNW 11 17 6 9 - - 0.0
20/08:00am 7.5 4.7 3.0 73 1.9 WNW 7 11 4 6 - - 0.0
20/07:30am 6.7 3.8 2.4 74 1.8 NW 7 11 4 6 - - 0.0

Other Formats:

Comma delimited format used in spreadsheet applications
http://www.bom.gov.au/fwo/IDN60801/IDN60801.95774.axf

JavaScript Object Notation format (JSON) in row-major order
http://www.bom.gov.au/fwo/IDN60801/IDN60801.95774.json